createdAt,value
2022-08-09T00:00:04.109Z,20.10
2022-08-09T00:02:42.885Z,20.10
2022-08-09T00:06:19.548Z,20.10
2022-08-09T00:08:10.179Z,20.00
2022-08-09T00:10:38.983Z,20.00
2022-08-09T00:13:16.779Z,20.00
2022-08-09T00:15:59.970Z,20.00
2022-08-09T00:18:34.856Z,20.00
2022-08-09T00:21:08.680Z,20.00
2022-08-09T00:23:57.235Z,20.00
2022-08-09T00:26:33.052Z,20.00
2022-08-09T00:29:02.751Z,20.00
2022-08-09T00:31:57.651Z,20.00
2022-08-09T00:34:19.210Z,20.00
2022-08-09T00:36:50.282Z,20.00
2022-08-09T00:40:12.161Z,19.90
2022-08-09T00:44:10.390Z,19.90
2022-08-09T00:44:55.504Z,19.80
2022-08-09T00:47:24.616Z,19.80
2022-08-09T00:49:54.918Z,19.80
2022-08-09T00:52:30.120Z,19.80
2022-08-09T00:55:02.317Z,19.80
2022-08-09T00:57:34.273Z,19.80
2022-08-09T01:00:21.347Z,19.70
2022-08-09T01:03:08.691Z,19.70
2022-08-09T01:05:57.170Z,19.70
2022-08-09T01:08:56.357Z,19.60
2022-08-09T01:11:56.190Z,19.70
2022-08-09T01:14:52.593Z,19.60
2022-08-09T01:17:30.709Z,19.60
2022-08-09T01:20:06.615Z,19.60
2022-08-09T01:22:59.778Z,19.60
2022-08-09T01:25:37.485Z,19.60
2022-08-09T01:28:11.450Z,19.60
2022-08-09T01:30:51.572Z,19.60
2022-08-09T01:33:23.968Z,19.60
2022-08-09T01:35:53.131Z,19.50
2022-08-09T01:38:27.804Z,19.50
2022-08-09T01:41:05.873Z,19.50
2022-08-09T01:43:42.114Z,19.40
2022-08-09T01:46:31.595Z,19.40
2022-08-09T01:49:21.091Z,19.40
2022-08-09T01:52:07.213Z,19.40
2022-08-09T01:54:45.801Z,19.50
2022-08-09T01:57:23.919Z,19.50
2022-08-09T02:00:00.312Z,19.50
2022-08-09T02:02:51.456Z,19.50
2022-08-09T02:05:37.911Z,19.50
2022-08-09T02:08:39.148Z,19.50
2022-08-09T02:11:17.068Z,19.50
2022-08-09T02:14:06.233Z,19.50
2022-08-09T02:16:59.516Z,19.60
2022-08-09T02:19:24.333Z,19.50
2022-08-09T02:22:10.896Z,19.50
2022-08-09T02:24:39.464Z,19.50
2022-08-09T02:27:12.187Z,19.50
2022-08-09T02:29:50.779Z,19.50
2022-08-09T02:32:21.744Z,19.40
2022-08-09T02:34:55.848Z,19.40
2022-08-09T02:37:31.791Z,19.40
2022-08-09T02:40:10.529Z,19.40
2022-08-09T02:42:40.721Z,19.40
2022-08-09T02:45:13.653Z,19.40
2022-08-09T02:47:57.513Z,19.40
2022-08-09T02:50:35.087Z,19.40
2022-08-09T02:53:09.577Z,19.40
2022-08-09T02:55:58.350Z,19.40
2022-08-09T02:58:36.971Z,19.40
2022-08-09T03:01:11.082Z,19.30
2022-08-09T03:04:18.088Z,19.30
2022-08-09T03:06:32.023Z,19.30
2022-08-09T03:09:01.882Z,19.20
2022-08-09T03:12:09.861Z,19.20
2022-08-09T03:14:20.209Z,19.20
2022-08-09T03:16:54.680Z,19.20
2022-08-09T03:19:58.883Z,19.20
2022-08-09T03:22:25.073Z,19.20
2022-08-09T03:25:03.320Z,19.20
2022-08-09T03:27:45.259Z,19.10
2022-08-09T03:30:29.832Z,19.10
2022-08-09T03:33:17.473Z,19.10
2022-08-09T03:36:15.771Z,19.10
2022-08-09T03:38:42.042Z,19.10
2022-08-09T03:41:15.519Z,19.10
2022-08-09T03:44:07.959Z,19.00
2022-08-09T03:46:32.958Z,18.90
2022-08-09T03:49:04.123Z,18.90
2022-08-09T03:51:56.666Z,18.90
2022-08-09T03:54:31.311Z,18.80
2022-08-09T03:57:04.466Z,18.80
2022-08-09T03:59:54.676Z,18.80
2022-08-09T04:02:29.439Z,18.70
2022-08-09T04:05:28.127Z,18.70
2022-08-09T04:07:57.227Z,18.80
2022-08-09T04:10:28.701Z,18.80
2022-08-09T04:13:01.359Z,18.80
2022-08-09T04:16:18.007Z,18.80
2022-08-09T04:18:21.509Z,18.80
2022-08-09T04:20:50.108Z,18.80
2022-08-09T04:23:24.483Z,18.80
2022-08-09T04:25:54.835Z,18.80
2022-08-09T04:28:34.217Z,18.70
2022-08-09T04:31:09.803Z,18.70
2022-08-09T04:33:51.538Z,18.70
2022-08-09T04:36:25.738Z,18.60
2022-08-09T04:38:54.571Z,18.60
2022-08-09T04:41:23.770Z,18.60
2022-08-09T04:44:06.417Z,18.50
2022-08-09T04:46:56.965Z,18.50
2022-08-09T04:49:40.628Z,18.50
2022-08-09T04:52:18.532Z,18.50
2022-08-09T04:54:54.421Z,18.50
2022-08-09T04:57:23.911Z,18.50
2022-08-09T04:59:54.266Z,18.50
2022-08-09T05:02:22.866Z,18.50
2022-08-09T05:04:55.269Z,18.50
2022-08-09T05:07:24.011Z,18.50
2022-08-09T05:09:51.485Z,18.50
2022-08-09T05:12:19.120Z,18.50
2022-08-09T05:14:50.224Z,18.50
2022-08-09T05:18:38.838Z,18.50
2022-08-09T05:20:05.479Z,18.60
2022-08-09T05:22:35.820Z,18.60
2022-08-09T05:25:21.391Z,18.60
2022-08-09T05:27:48.789Z,18.60
2022-08-09T05:30:19.407Z,18.60
2022-08-09T05:32:50.869Z,18.70
2022-08-09T05:35:21.997Z,18.60
2022-08-09T05:37:51.145Z,18.60
2022-08-09T05:40:19.758Z,18.60
2022-08-09T05:42:49.827Z,18.60
2022-08-09T05:45:17.265Z,18.70
2022-08-09T05:47:52.361Z,18.70
2022-08-09T05:50:50.783Z,18.70
2022-08-09T05:53:21.407Z,18.70
2022-08-09T05:55:58.226Z,18.70
2022-08-09T05:58:25.396Z,18.70
2022-08-09T06:00:54.080Z,18.70
2022-08-09T06:03:21.295Z,18.70
2022-08-09T06:06:04.706Z,18.70
2022-08-09T06:08:33.886Z,18.70
2022-08-09T06:11:01.329Z,18.80
2022-08-09T06:13:44.966Z,18.80
2022-08-09T06:16:15.122Z,18.80
2022-08-09T06:18:43.818Z,18.80
2022-08-09T06:21:11.240Z,18.90
2022-08-09T06:23:58.571Z,18.90
2022-08-09T06:26:28.448Z,18.90
2022-08-09T06:29:00.215Z,19.00
2022-08-09T06:31:40.234Z,19.00
2022-08-09T06:34:19.000Z,19.00
2022-08-09T06:36:46.450Z,19.10
2022-08-09T06:39:14.803Z,19.10
2022-08-09T06:42:08.821Z,19.10
2022-08-09T06:44:31.820Z,19.10
2022-08-09T06:47:00.562Z,19.10
2022-08-09T06:50:11.164Z,19.10
2022-08-09T06:52:17.820Z,19.10
2022-08-09T06:54:45.461Z,19.20
2022-08-09T06:57:13.454Z,19.20
2022-08-09T07:00:51.564Z,19.20
2022-08-09T07:02:31.687Z,19.30
2022-08-09T07:05:00.655Z,19.30
2022-08-09T07:07:59.646Z,19.40
2022-08-09T07:10:29.545Z,19.40
2022-08-09T07:12:59.475Z,19.40
2022-08-09T07:16:35.131Z,19.50
2022-08-09T07:18:15.210Z,19.50
2022-08-09T07:20:43.753Z,19.60
2022-08-09T07:23:18.489Z,19.60
2022-08-09T07:25:52.244Z,19.60
2022-08-09T07:28:30.970Z,19.70
2022-08-09T07:31:04.891Z,19.70
2022-08-09T07:33:52.546Z,19.70
2022-08-09T07:36:22.059Z,19.70
2022-08-09T07:38:56.758Z,19.70
2022-08-09T07:41:28.030Z,19.80
2022-08-09T07:44:01.485Z,19.70
2022-08-09T07:46:29.690Z,19.80
2022-08-09T07:48:59.629Z,19.80
2022-08-09T07:52:05.648Z,19.90
2022-08-09T07:54:27.567Z,19.90
2022-08-09T07:56:55.858Z,19.90
2022-08-09T07:59:25.236Z,20.00
2022-08-09T08:02:01.780Z,20.00
2022-08-09T08:04:31.621Z,20.10
2022-08-09T08:07:09.385Z,20.10
2022-08-09T08:09:54.813Z,20.10
2022-08-09T08:12:31.896Z,20.20
2022-08-09T08:14:59.757Z,20.20
2022-08-09T08:17:52.479Z,20.30
2022-08-09T08:20:15.117Z,20.40
2022-08-09T08:22:42.477Z,20.40
2022-08-09T08:25:13.494Z,20.50
2022-08-09T08:27:43.115Z,20.50
2022-08-09T08:30:13.937Z,20.50
2022-08-09T08:32:52.754Z,20.60
2022-08-09T08:35:22.643Z,20.60
2022-08-09T08:38:01.927Z,20.60
2022-08-09T08:40:33.720Z,20.60
2022-08-09T08:43:08.982Z,20.70
2022-08-09T08:45:53.469Z,20.70
2022-08-09T08:48:32.756Z,20.80
2022-08-09T08:51:01.342Z,20.80
2022-08-09T08:53:32.137Z,20.90
2022-08-09T08:56:06.106Z,21.00
2022-08-09T08:58:35.909Z,21.10
2022-08-09T09:01:08.847Z,21.10
2022-08-09T09:03:38.262Z,21.20
2022-08-09T09:06:09.614Z,21.20
2022-08-09T09:08:40.489Z,21.20
2022-08-09T09:11:13.566Z,21.30
2022-08-09T09:13:57.377Z,21.30
2022-08-09T09:16:35.799Z,21.30
2022-08-09T09:19:37.093Z,21.30
2022-08-09T09:22:26.757Z,21.40
2022-08-09T09:26:03.807Z,21.40
2022-08-09T09:28:06.700Z,21.40
2022-08-09T09:30:41.893Z,21.40
2022-08-09T09:33:16.116Z,21.40
2022-08-09T09:36:20.364Z,21.40
2022-08-09T09:38:57.268Z,21.50
2022-08-09T09:41:28.013Z,21.50
2022-08-09T09:44:15.241Z,21.60
2022-08-09T09:47:13.466Z,21.60
2022-08-09T09:50:13.268Z,21.70
2022-08-09T09:52:54.691Z,21.70
2022-08-09T09:55:28.514Z,21.80
2022-08-09T09:58:18.077Z,21.80
2022-08-09T10:00:58.370Z,21.90
2022-08-09T10:04:02.311Z,22.00
2022-08-09T10:06:46.969Z,22.10
2022-08-09T10:09:24.023Z,22.20
2022-08-09T10:12:11.441Z,22.30
2022-08-09T10:14:48.018Z,22.40
2022-08-09T10:17:50.652Z,22.40
2022-08-09T10:20:27.659Z,22.50
2022-08-09T10:23:23.778Z,22.60
2022-08-09T10:26:08.202Z,22.60
2022-08-09T10:28:40.280Z,22.70
2022-08-09T10:34:10.893Z,22.80
2022-08-09T10:36:51.886Z,23.00
2022-08-09T10:39:19.934Z,23.10
2022-08-09T10:41:48.349Z,23.10
2022-08-09T10:44:22.910Z,23.20
2022-08-09T10:46:57.474Z,23.20
2022-08-09T10:49:51.761Z,23.20
2022-08-09T10:52:36.871Z,23.30
2022-08-09T10:55:28.212Z,23.30
2022-08-09T10:57:58.625Z,23.30
2022-08-09T11:01:10.654Z,23.30
2022-08-09T11:03:51.443Z,23.30
2022-08-09T11:06:20.795Z,23.30
2022-08-09T11:08:51.144Z,23.30
2022-08-09T11:11:23.067Z,23.30
2022-08-09T11:14:28.774Z,23.30
2022-08-09T11:16:59.554Z,23.30
2022-08-09T11:20:10.670Z,23.30
2022-08-09T11:22:44.784Z,23.40
2022-08-09T11:25:17.717Z,23.40
2022-08-09T11:28:04.461Z,23.40
2022-08-09T11:30:37.801Z,23.30
2022-08-09T11:33:15.357Z,23.40
2022-08-09T11:36:00.324Z,23.50
2022-08-09T11:38:34.796Z,23.50
2022-08-09T11:41:38.475Z,23.60
2022-08-09T11:44:09.067Z,23.70
2022-08-09T11:46:57.254Z,23.90
2022-08-09T11:50:52.544Z,24.10
2022-08-09T11:53:55.290Z,24.10
2022-08-09T11:56:02.966Z,24.10
2022-08-09T11:58:32.914Z,24.20
2022-08-09T12:01:08.580Z,24.20
2022-08-09T12:03:56.786Z,24.20
2022-08-09T12:06:32.886Z,24.20
2022-08-09T12:09:19.616Z,24.20
2022-08-09T12:12:12.325Z,24.20
2022-08-09T12:15:07.881Z,24.30
2022-08-09T12:17:44.397Z,24.30
2022-08-09T12:20:22.379Z,24.40
2022-08-09T12:22:57.711Z,24.40
2022-08-09T12:25:36.681Z,24.50
2022-08-09T12:29:11.902Z,24.50
2022-08-09T12:31:02.951Z,24.60
2022-08-09T12:33:58.432Z,24.60
2022-08-09T12:36:31.187Z,24.60
2022-08-09T12:39:02.583Z,24.60
2022-08-09T12:41:39.674Z,24.60
2022-08-09T12:44:12.679Z,24.70
2022-08-09T12:46:48.630Z,24.70
2022-08-09T12:49:28.102Z,24.70
2022-08-09T12:52:08.802Z,24.70
2022-08-09T12:55:03.311Z,24.70
2022-08-09T12:57:48.879Z,24.70
2022-08-09T13:00:34.794Z,24.80
2022-08-09T13:03:07.434Z,24.80
2022-08-09T13:05:52.460Z,24.90
2022-08-09T13:09:01.275Z,24.90
2022-08-09T13:11:30.546Z,24.80
2022-08-09T13:14:40.527Z,24.80
2022-08-09T13:17:08.499Z,24.70
2022-08-09T13:20:10.212Z,24.80
2022-08-09T13:22:35.596Z,24.80
2022-08-09T13:25:07.470Z,24.80
2022-08-09T13:27:54.570Z,24.80
2022-08-09T13:30:51.225Z,24.90
2022-08-09T13:33:22.560Z,24.80
2022-08-09T13:36:41.839Z,24.90
2022-08-09T13:38:56.197Z,24.90
2022-08-09T13:41:51.433Z,24.90
2022-08-09T13:44:16.984Z,24.90
2022-08-09T13:47:25.513Z,24.90
2022-08-09T13:49:39.518Z,25.00
2022-08-09T13:52:23.320Z,25.00
2022-08-09T13:55:00.651Z,25.10
2022-08-09T13:57:35.455Z,25.20
2022-08-09T14:00:20.037Z,25.30
2022-08-09T14:03:16.909Z,25.30
2022-08-09T14:06:00.333Z,25.30
2022-08-09T14:08:26.885Z,25.30
2022-08-09T14:10:56.585Z,25.40
2022-08-09T14:14:14.695Z,25.40
2022-08-09T14:16:18.601Z,25.40
2022-08-09T14:18:49.727Z,25.40
2022-08-09T14:21:23.165Z,25.40
2022-08-09T14:23:54.787Z,25.40
2022-08-09T14:26:30.537Z,25.40
2022-08-09T14:29:07.523Z,25.40
2022-08-09T14:31:52.242Z,25.50
2022-08-09T14:34:32.435Z,25.50
2022-08-09T14:37:02.112Z,25.50
2022-08-09T14:39:40.340Z,25.50
2022-08-09T14:42:29.072Z,25.50
2022-08-09T14:46:40.522Z,25.40
2022-08-09T14:47:57.433Z,25.40
2022-08-09T14:50:32.568Z,25.30
2022-08-09T14:53:11.335Z,25.30
2022-08-09T14:55:50.299Z,25.20
2022-08-09T14:58:18.428Z,25.20
2022-08-09T15:00:48.344Z,25.20
2022-08-09T15:03:20.076Z,25.10
2022-08-09T15:05:52.299Z,25.10
2022-08-09T15:08:25.531Z,25.00
2022-08-09T15:11:01.326Z,25.00
2022-08-09T15:13:47.775Z,25.00
2022-08-09T15:16:17.072Z,25.00
2022-08-09T15:18:44.241Z,25.00
2022-08-09T15:21:55.400Z,25.00
2022-08-09T15:24:12.856Z,24.90
2022-08-09T15:26:46.512Z,25.00
2022-08-09T15:30:56.930Z,25.00
2022-08-09T15:32:02.511Z,25.00
2022-08-09T15:34:34.687Z,25.20
2022-08-09T15:37:23.853Z,25.30
2022-08-09T15:39:55.068Z,25.30
2022-08-09T15:42:22.744Z,25.40
2022-08-09T15:44:50.880Z,25.50
2022-08-09T15:47:23.543Z,25.60
2022-08-09T15:50:05.415Z,25.60
2022-08-09T15:52:38.363Z,25.70
2022-08-09T15:55:08.660Z,25.60
2022-08-09T15:57:50.792Z,25.70
2022-08-09T16:00:24.473Z,25.70
2022-08-09T16:02:56.170Z,25.80
2022-08-09T16:05:47.429Z,25.90
2022-08-09T16:08:30.527Z,25.90
2022-08-09T16:11:03.244Z,25.90
2022-08-09T16:14:04.017Z,26.00
2022-08-09T16:16:28.106Z,26.00
2022-08-09T16:18:56.232Z,26.00
2022-08-09T16:21:25.590Z,26.00
2022-08-09T16:23:55.903Z,26.00
2022-08-09T16:26:33.953Z,26.00
2022-08-09T16:29:10.802Z,26.00
2022-08-09T16:32:17.597Z,26.10
2022-08-09T16:34:55.494Z,26.30
2022-08-09T16:37:54.756Z,26.40
2022-08-09T16:40:13.929Z,26.50
2022-08-09T16:42:48.852Z,26.60
2022-08-09T16:45:19.137Z,26.70
2022-08-09T16:48:43.170Z,26.70
2022-08-09T16:50:38.382Z,26.70
2022-08-09T16:53:06.737Z,26.60
2022-08-09T16:56:00.505Z,26.40
2022-08-09T16:58:25.361Z,26.40
2022-08-09T17:00:53.572Z,26.40
2022-08-09T17:03:22.934Z,26.40
2022-08-09T17:06:07.037Z,26.30
2022-08-09T17:08:58.174Z,26.30
2022-08-09T17:11:39.985Z,26.20
2022-08-09T17:14:26.628Z,26.20
2022-08-09T17:16:59.742Z,26.10
2022-08-09T17:19:46.393Z,26.10
2022-08-09T17:22:33.920Z,26.00
2022-08-09T17:25:09.761Z,25.90
2022-08-09T17:27:48.825Z,25.90
2022-08-09T17:30:17.438Z,25.90
2022-08-09T17:32:48.132Z,25.90
2022-08-09T17:35:16.971Z,25.80
2022-08-09T17:38:11.895Z,25.80
2022-08-09T17:40:34.765Z,25.70
2022-08-09T17:43:33.191Z,25.70
2022-08-09T17:46:04.184Z,25.80
2022-08-09T17:48:40.649Z,25.80
2022-08-09T17:51:20.694Z,25.70
2022-08-09T17:53:52.831Z,25.70
2022-08-09T17:56:26.607Z,25.70
2022-08-09T17:59:11.479Z,25.60
2022-08-09T18:02:07.348Z,25.60
2022-08-09T18:04:30.881Z,25.60
2022-08-09T18:06:59.343Z,25.60
2022-08-09T18:09:40.175Z,25.60
2022-08-09T18:12:14.951Z,25.60
2022-08-09T18:14:53.543Z,25.70
2022-08-09T18:17:27.633Z,25.70
2022-08-09T18:20:59.838Z,25.60
2022-08-09T18:23:05.845Z,25.60
2022-08-09T18:25:50.274Z,25.60
2022-08-09T18:30:35.614Z,25.60
2022-08-09T18:31:10.950Z,25.60
2022-08-09T18:33:40.029Z,25.70
2022-08-09T18:36:26.116Z,25.60
2022-08-09T18:39:02.226Z,25.60
2022-08-09T18:41:34.952Z,25.50
2022-08-09T18:44:04.815Z,25.40
2022-08-09T18:46:47.834Z,25.30
2022-08-09T18:49:28.281Z,25.20
2022-08-09T18:51:59.744Z,25.10
2022-08-09T18:54:28.800Z,25.00
2022-08-09T18:57:06.102Z,25.00
2022-08-09T19:08:10.800Z,24.70
2022-08-09T19:11:19.480Z,24.60
2022-08-09T19:18:16.911Z,24.50
2022-08-09T19:20:43.217Z,24.80
2022-08-09T19:20:44.740Z,24.50
2022-08-09T19:24:33.235Z,24.40
2022-08-09T19:26:07.320Z,24.40
2022-08-09T19:28:42.722Z,24.30
2022-08-09T19:31:16.777Z,24.30
2022-08-09T19:33:44.304Z,24.20
2022-08-09T19:36:13.496Z,24.20
2022-08-09T19:38:41.057Z,24.10
2022-08-09T19:41:10.454Z,24.10
2022-08-09T19:44:00.642Z,24.10
2022-08-09T19:46:35.232Z,24.00
2022-08-09T19:50:04.516Z,23.90
2022-08-09T19:51:55.400Z,23.80
2022-08-09T19:54:25.507Z,23.80
2022-08-09T19:56:56.662Z,23.70
2022-08-09T19:59:39.535Z,23.60
2022-08-09T20:02:17.301Z,23.50
2022-08-09T20:05:09.694Z,23.40
2022-08-09T20:07:59.249Z,23.30
2022-08-09T20:10:34.136Z,23.30
2022-08-09T20:13:05.080Z,23.30
2022-08-09T20:16:35.315Z,23.10
2022-08-09T20:18:22.479Z,23.10
2022-08-09T20:20:55.222Z,23.10
2022-08-09T20:23:38.468Z,23.00
2022-08-09T20:26:09.987Z,23.00
2022-08-09T20:28:49.744Z,22.90
2022-08-09T20:31:18.650Z,22.90
2022-08-09T20:33:46.801Z,22.80
2022-08-09T20:36:20.418Z,22.80
2022-08-09T20:41:37.397Z,22.70
2022-08-09T20:44:06.953Z,22.60
2022-08-09T20:46:44.377Z,22.60
2022-08-09T20:49:16.741Z,22.50
2022-08-09T20:51:50.799Z,22.50
2022-08-09T20:54:18.394Z,22.50
2022-08-09T20:56:49.787Z,22.40
2022-08-09T20:59:24.913Z,22.40
2022-08-09T21:02:11.547Z,22.30
2022-08-09T21:05:56.104Z,22.20
2022-08-09T21:07:40.351Z,22.20
2022-08-09T21:10:11.632Z,22.10
2022-08-09T21:12:39.541Z,22.00
2022-08-09T21:15:12.619Z,22.00
2022-08-09T21:18:22.257Z,21.90
2022-08-09T21:20:33.090Z,21.90
2022-08-09T21:23:03.233Z,21.80
2022-08-09T21:25:55.630Z,21.80
2022-08-09T21:28:37.198Z,21.80
2022-08-09T21:31:18.221Z,21.70
2022-08-09T21:33:52.999Z,21.70
2022-08-09T21:36:28.185Z,21.60
2022-08-09T21:38:59.534Z,21.50
2022-08-09T21:42:06.017Z,21.50
2022-08-09T21:44:32.836Z,21.40
2022-08-09T21:47:08.614Z,21.40
2022-08-09T21:49:40.523Z,21.30
2022-08-09T21:52:17.587Z,21.30
2022-08-09T21:54:59.623Z,21.30
2022-08-09T21:57:38.687Z,21.20
2022-08-09T22:00:32.133Z,21.20
2022-08-09T22:03:06.817Z,21.20
2022-08-09T22:05:42.344Z,21.10
2022-08-09T22:08:14.664Z,21.00
2022-08-09T22:11:00.936Z,20.90
2022-08-09T22:13:37.240Z,20.90
2022-08-09T22:16:07.904Z,20.90
2022-08-09T22:18:53.388Z,20.80
2022-08-09T22:21:49.717Z,20.70
2022-08-09T22:24:17.239Z,20.70
2022-08-09T22:26:51.069Z,20.60
2022-08-09T22:29:19.478Z,20.60
2022-08-09T22:31:57.018Z,20.60
2022-08-09T22:34:28.563Z,20.60
2022-08-09T22:36:58.211Z,20.60
2022-08-09T22:39:56.360Z,20.60
2022-08-09T22:42:21.954Z,20.60
2022-08-09T22:45:00.030Z,20.50
2022-08-09T22:48:16.237Z,20.50
2022-08-09T22:50:31.603Z,20.40
2022-08-09T22:53:03.686Z,20.40
2022-08-09T22:56:06.697Z,20.30
2022-08-09T22:58:20.197Z,20.30
2022-08-09T23:01:02.158Z,20.30
2022-08-09T23:04:03.623Z,20.20
2022-08-09T23:06:35.635Z,20.10
2022-08-09T23:09:07.577Z,20.10
2022-08-09T23:11:35.105Z,20.10
2022-08-09T23:14:03.643Z,20.10
2022-08-09T23:16:31.901Z,20.10
2022-08-09T23:18:59.490Z,20.00
2022-08-09T23:21:30.081Z,20.00
2022-08-09T23:24:05.393Z,19.90
2022-08-09T23:26:39.263Z,19.80
2022-08-09T23:29:08.484Z,19.80
2022-08-09T23:31:36.109Z,19.70
2022-08-09T23:34:04.288Z,19.70
2022-08-09T23:36:32.549Z,19.70
2022-08-09T23:39:00.337Z,19.70
2022-08-09T23:41:29.692Z,19.60
2022-08-09T23:43:58.914Z,19.60
2022-08-09T23:46:27.023Z,19.60
2022-08-09T23:48:54.519Z,19.60
2022-08-09T23:51:29.631Z,19.50
2022-08-09T23:54:02.365Z,19.50
2022-08-09T23:56:53.296Z,19.50
2022-08-09T23:59:20.673Z,19.50
